X  Close Metar Aviation Weather Data        LPMA Madeira Airport
Temperature
15°C Temperature
13°C Dewpoint
88% Humidity



Wind
18 MPH
30 KM/H
8 M/S
16 KTS



20°
NNE
Current Conditions

Mostly Cloudy with Light Showers Mostly Cloudy , Light Showers
Pressure 1028 (hPa) - 30.35 (inHg)
Visibility 4 (mile) - 7 (km)
Airport
Airport-code LPMA

Location: Madeira Airport
Distance: 51 (mi)

Metar:
METAR LPMA 290800Z 02016G29KT 330V050 7000 -SHRA BKN015 15/13 Q1028

Time: 29-02-2024 08:00 WET